Time;durP1;ratioP1;P1;durP2;ratioP2;P2;SDS_P1;SDS_P2;PMS_P1;PMS_P2;Temp;Humidity;BMP_temperature;BMP_pressure;BME280_temperature;BME280_humidity;BME280_pressure;Samples;Min_cycle;Max_cycle;Signal;HPM_P1;HPM_P2
2021/06/25 00:01:52;;;;;;;13.32;4.38;;;27.10;74.90;;;;;;4976467;28;20120;-75
2021/06/25 00:04:18;;;;;;;14.18;4.03;;;27.10;75.20;;;;;;4993384;28;20023;-69
2021/06/25 00:06:43;;;;;;;11.52;4.20;;;27.10;75.50;;;;;;4976305;28;20036;-70
2021/06/25 00:09:09;;;;;;;9.65;4.50;;;27.10;75.70;;;;;;4994014;28;20453;-69
2021/06/25 00:11:35;;;;;;;15.73;4.65;;;27.10;75.70;;;;;;4976238;28;20461;-69
2021/06/25 00:14:00;;;;;;;16.33;4.93;;;27.00;75.50;;;;;;4993676;28;20484;-68
2021/06/25 00:16:26;;;;;;;9.20;4.18;;;27.00;75.50;;;;;;4976340;28;20033;-69
2021/06/25 00:18:52;;;;;;;14.32;4.57;;;26.90;75.30;;;;;;4992869;28;20483;-72
2021/06/25 00:21:18;;;;;;;18.95;5.00;;;26.90;75.40;;;;;;4976561;28;20037;-69
2021/06/25 00:23:43;;;;;;;17.60;4.90;;;26.90;75.50;;;;;;4976159;28;20026;-71
2021/06/25 00:26:09;;;;;;;19.67;4.93;;;26.90;75.60;;;;;;4993281;28;20038;-70
2021/06/25 00:28:35;;;;;;;15.07;6.70;;;26.80;75.80;;;;;;4970442;28;20469;-69
2021/06/25 00:31:00;;;;;;;17.50;5.78;;;26.80;75.60;;;;;;4976003;28;20092;-71
2021/06/25 00:33:26;;;;;;;17.63;5.50;;;26.70;75.90;;;;;;4975179;28;20133;-70
2021/06/25 00:35:52;;;;;;;15.95;4.85;;;26.70;75.30;;;;;;4993079;28;20050;-70
2021/06/25 00:38:17;;;;;;;11.90;4.57;;;26.80;75.30;;;;;;4975992;28;20054;-70
2021/06/25 00:40:43;;;;;;;15.73;5.18;;;26.70;75.00;;;;;;4993000;28;20045;-70
2021/06/25 00:43:09;;;;;;;11.85;4.65;;;26.70;74.90;;;;;;4993414;28;20064;-70
2021/06/25 00:45:34;;;;;;;15.90;5.28;;;26.70;74.80;;;;;;4993051;28;20027;-69
2021/06/25 00:48:00;;;;;;;14.73;5.97;;;26.60;75.20;;;;;;4976158;28;20026;-68
2021/06/25 00:50:29;;;;;;;24.20;12.70;;;26.60;75.00;;;;;;4995041;28;20038;-70
2021/06/25 00:52:57;;;;;;;27.38;14.07;;;26.60;75.00;;;;;;4979405;28;20046;-69
2021/06/25 00:55:24;;;;;;;18.05;8.63;;;26.50;75.00;;;;;;4989679;28;20026;-69
2021/06/25 00:57:50;;;;;;;18.27;8.43;;;26.50;75.30;;;;;;4979830;28;20477;-70
2021/06/25 01:00:16;;;;;;;22.20;7.72;;;26.50;75.40;;;;;;4997034;28;20040;-69
2021/06/25 01:02:42;;;;;;;15.98;8.90;;;26.50;75.70;;;;;;4996783;28;20034;-70
2021/06/25 01:05:09;;;;;;;16.52;8.80;;;26.50;76.00;;;;;;4996770;28;20085;-67
2021/06/25 01:07:35;;;;;;;20.00;9.57;;;26.50;76.10;;;;;;4979838;28;20030;-67
2021/06/25 01:10:09;;;;;;;24.58;11.05;;;26.40;76.20;;;;;;4996791;28;20196;-68
2021/06/25 01:12:35;;;;;;;17.83;12.23;;;26.40;76.60;;;;;;4979231;28;20058;-71
2021/06/25 01:15:01;;;;;;;17.48;11.00;;;26.30;76.70;;;;;;4996681;28;20037;-71
2021/06/25 01:17:30;;;;;;;18.73;11.23;;;26.30;77.00;;;;;;4979431;28;20023;-70
2021/06/25 01:19:57;;;;;;;18.80;10.98;;;26.20;77.30;;;;;;4979217;28;20464;-68
2021/06/25 01:22:34;;;;;;;21.25;11.85;;;26.20;77.60;;;;;;4978681;28;20026;-70
2021/06/25 01:25:14;;;;;;;18.42;10.48;;;26.20;77.90;;;;;;4979088;28;20026;-72
2021/06/25 01:27:41;;;;;;;15.63;9.45;;;26.10;78.00;;;;;;4979232;28;20109;-70
2021/06/25 01:30:09;;;;;;;27.40;10.80;;;26.00;78.00;;;;;;4996207;28;20026;-72
2021/06/25 01:32:35;;;;;;;21.25;9.82;;;26.00;78.50;;;;;;4979294;28;20030;-69
2021/06/25 01:35:01;;;;;;;17.45;10.50;;;25.90;78.70;;;;;;4996756;28;20027;-71
2021/06/25 01:37:28;;;;;;;18.10;9.98;;;25.90;78.90;;;;;;4996370;28;20072;-69
2021/06/25 01:39:54;;;;;;;17.45;9.55;;;25.80;79.20;;;;;;4978884;28;20057;-70
2021/06/25 01:42:20;;;;;;;16.20;9.18;;;25.80;79.20;;;;;;4995854;28;20539;-69
2021/06/25 01:44:51;;;;;;;16.88;9.02;;;25.80;79.30;;;;;;4996556;28;20469;-70
2021/06/25 01:47:17;;;;;;;16.60;7.95;;;25.80;79.30;;;;;;4975252;28;20031;-70
2021/06/25 01:49:43;;;;;;;20.52;8.98;;;25.80;79.10;;;;;;4978664;28;20029;-69
2021/06/25 01:52:19;;;;;;;21.20;8.02;;;25.80;79.20;;;;;;4995895;28;20038;-69
2021/06/25 01:54:48;;;;;;;18.70;7.40;;;25.80;79.10;;;;;;4978592;28;20030;-70
2021/06/25 01:57:14;;;;;;;17.35;7.63;;;25.80;79.10;;;;;;4996246;28;20034;-68
2021/06/25 01:59:41;;;;;;;18.70;7.85;;;25.80;79.10;;;;;;4978325;28;20072;-69
2021/06/25 02:02:07;;;;;;;17.65;7.90;;;25.80;79.30;;;;;;4995376;28;20027;-71
2021/06/25 02:04:33;;;;;;;12.80;6.82;;;25.80;79.30;;;;;;4995593;28;20038;-70
2021/06/25 02:06:59;;;;;;;13.27;7.03;;;25.80;79.40;;;;;;4995958;28;20023;-70
2021/06/25 02:09:24;;;;;;;14.82;7.55;;;25.80;79.60;;;;;;4995610;28;20031;-70
2021/06/25 02:11:50;;;;;;;15.02;7.10;;;25.80;79.50;;;;;;4996141;28;20030;-70
2021/06/25 02:14:17;;;;;;;17.08;7.30;;;25.90;79.80;;;;;;4995631;28;20055;-70
2021/06/25 02:16:43;;;;;;;16.38;6.45;;;25.90;79.60;;;;;;4978235;28;20085;-69
2021/06/25 02:19:09;;;;;;;12.80;6.10;;;25.90;79.50;;;;;;4978279;28;20030;-69
2021/06/25 02:21:35;;;;;;;15.45;6.38;;;25.90;79.60;;;;;;4996699;28;20026;-69
2021/06/25 02:24:01;;;;;;;14.35;5.93;;;25.90;79.70;;;;;;5005090;28;20031;-73
2021/06/25 02:26:26;;;;;;;11.38;5.88;;;25.90;79.80;;;;;;4995434;28;20034;-67
2021/06/25 02:28:52;;;;;;;14.52;6.35;;;25.90;79.90;;;;;;4996271;28;20034;-67
2021/06/25 02:31:19;;;;;;;11.25;6.40;;;25.90;80.30;;;;;;4995608;28;20206;-70
2021/06/25 02:33:45;;;;;;;15.88;7.00;;;25.90;80.70;;;;;;4995677;28;20026;-75
2021/06/25 02:36:11;;;;;;;22.52;6.72;;;25.90;81.30;;;;;;4970005;28;20560;-66
2021/06/25 02:38:36;;;;;;;15.98;7.00;;;25.90;81.50;;;;;;4965784;28;20101;-70
2021/06/25 02:41:02;;;;;;;18.33;6.88;;;26.00;81.70;;;;;;4972150;28;20035;-69
2021/06/25 02:43:28;;;;;;;15.70;6.97;;;26.00;81.60;;;;;;4973008;28;20031;-68
2021/06/25 02:45:54;;;;;;;19.23;6.85;;;26.00;81.80;;;;;;4995179;28;20031;-68
2021/06/25 02:48:19;;;;;;;13.93;6.60;;;26.00;82.10;;;;;;4994133;28;20045;-69
2021/06/25 02:50:45;;;;;;;14.82;6.55;;;26.10;82.20;;;;;;5008109;28;20034;-68
2021/06/25 02:53:11;;;;;;;15.05;6.22;;;26.10;82.00;;;;;;4994795;28;20053;-68
2021/06/25 02:55:37;;;;;;;13.57;6.57;;;26.20;81.80;;;;;;4994735;28;20034;-68
2021/06/25 02:58:02;;;;;;;14.68;6.60;;;26.10;81.80;;;;;;4994937;28;20032;-69
2021/06/25 03:00:28;;;;;;;14.15;6.22;;;26.20;81.80;;;;;;4994225;28;20030;-69
2021/06/25 03:02:54;;;;;;;11.82;6.63;;;26.20;81.80;;;;;;4994778;28;20070;-70
2021/06/25 03:05:20;;;;;;;13.25;6.55;;;26.20;81.60;;;;;;4994331;28;20030;-68
2021/06/25 03:07:46;;;;;;;13.40;6.47;;;26.30;81.20;;;;;;4976850;28;20535;-67
2021/06/25 03:10:13;;;;;;;19.15;6.90;;;26.40;81.20;;;;;;4994083;28;20038;-67
2021/06/25 03:12:38;;;;;;;15.00;6.97;;;26.40;81.00;;;;;;4975595;28;20050;-68
2021/06/25 03:15:09;;;;;;;16.08;7.00;;;26.50;80.90;;;;;;4995109;28;20435;-67
2021/06/25 03:17:35;;;;;;;16.48;6.97;;;26.50;80.70;;;;;;4994054;28;20030;-68
2021/06/25 03:20:01;;;;;;;13.20;6.15;;;26.50;80.50;;;;;;4976626;28;20031;-69
2021/06/25 03:22:26;;;;;;;13.55;6.07;;;26.60;80.20;;;;;;4994032;28;20092;-77
2021/06/25 03:24:52;;;;;;;11.88;6.80;;;26.70;80.10;;;;;;4977262;28;20027;-67
2021/06/25 03:27:18;;;;;;;13.63;6.07;;;26.80;79.70;;;;;;4977162;28;20041;-68
2021/06/25 03:29:44;;;;;;;12.32;6.63;;;26.80;79.20;;;;;;4994487;28;20022;-67
2021/06/25 03:32:09;;;;;;;13.32;6.35;;;26.90;79.40;;;;;;4994121;28;20045;-70
2021/06/25 03:34:35;;;;;;;15.32;6.32;;;27.00;79.40;;;;;;4993801;28;20113;-68
2021/06/25 03:37:01;;;;;;;11.80;5.22;;;27.20;78.90;;;;;;4976663;28;20038;-67
2021/06/25 03:39:27;;;;;;;15.35;5.63;;;27.30;77.70;;;;;;4993486;28;20601;-74
2021/06/25 03:41:52;;;;;;;12.63;5.47;;;27.40;76.70;;;;;;4976826;28;20037;-68
2021/06/25 03:44:18;;;;;;;13.95;6.22;;;27.40;76.40;;;;;;4993932;28;20034;-69
2021/06/25 03:46:43;;;;;;;13.18;5.50;;;27.40;75.40;;;;;;4993679;28;20099;-68
2021/06/25 03:49:09;;;;;;;18.00;5.72;;;27.40;75.00;;;;;;4993894;28;20026;-68
2021/06/25 03:51:35;;;;;;;11.30;5.60;;;27.40;74.50;;;;;;4976392;28;20041;-69
2021/06/25 03:54:02;;;;;;;17.20;5.05;;;27.40;73.70;;;;;;4994372;28;20056;-67
2021/06/25 03:56:28;;;;;;;11.02;5.35;;;27.30;73.60;;;;;;4993780;28;20027;-68
2021/06/25 03:58:54;;;;;;;10.85;5.60;;;27.40;73.60;;;;;;4992935;28;20038;-70
2021/06/25 04:01:21;;;;;;;14.45;5.53;;;27.40;73.50;;;;;;4993670;28;20057;-68
2021/06/25 04:03:47;;;;;;;13.77;5.55;;;27.40;73.50;;;;;;4993859;28;20030;-67
2021/06/25 04:06:13;;;;;;;15.32;5.80;;;27.40;73.00;;;;;;4976500;28;20033;-68
2021/06/25 04:08:39;;;;;;;12.70;5.72;;;27.40;73.10;;;;;;4992766;28;20073;-67
2021/06/25 04:11:05;;;;;;;12.27;5.50;;;27.50;73.10;;;;;;4972318;28;20085;-68
2021/06/25 04:13:32;;;;;;;15.85;6.10;;;27.50;73.10;;;;;;4973020;28;20054;-70
2021/06/25 04:15:58;;;;;;;16.00;5.15;;;27.70;72.80;;;;;;4978527;28;20038;-67
2021/06/25 04:18:25;;;;;;;12.85;5.80;;;27.70;72.40;;;;;;4964723;28;20138;-67
2021/06/25 04:20:52;;;;;;;13.70;5.72;;;27.80;72.50;;;;;;4973010;28;20038;-69
2021/06/25 04:23:18;;;;;;;16.33;6.00;;;27.80;72.20;;;;;;4988905;28;20070;-67
2021/06/25 04:25:44;;;;;;;13.73;5.90;;;27.90;72.00;;;;;;4976024;28;20034;-68
2021/06/25 04:28:10;;;;;;;11.25;5.55;;;28.00;72.40;;;;;;4990466;28;20050;-67
2021/06/25 04:30:40;;;;;;;13.50;5.53;;;28.10;72.40;;;;;;4994058;28;20480;-68
2021/06/25 04:33:08;;;;;;;16.45;5.50;;;28.20;72.30;;;;;;4977299;28;20033;-67
2021/06/25 04:35:33;;;;;;;17.77;5.97;;;28.20;71.90;;;;;;4978571;28;20039;-68
2021/06/25 04:38:02;;;;;;;14.63;6.43;;;28.30;71.80;;;;;;4992791;28;20033;-67
2021/06/25 04:40:32;;;;;;;15.55;6.57;;;28.40;71.80;;;;;;4976491;28;20045;-73
2021/06/25 04:42:58;;;;;;;14.38;6.10;;;28.50;71.60;;;;;;4976316;28;20061;-69
2021/06/25 04:45:24;;;;;;;16.38;6.93;;;28.50;71.20;;;;;;4996113;28;20028;-67
2021/06/25 04:47:50;;;;;;;12.98;6.28;;;28.50;70.80;;;;;;4994745;28;20034;-67
2021/06/25 04:50:16;;;;;;;16.65;6.53;;;28.60;70.60;;;;;;4993958;28;20031;-68
2021/06/25 04:52:42;;;;;;;18.90;6.40;;;28.70;70.10;;;;;;4996347;28;20027;-68
2021/06/25 04:55:08;;;;;;;13.88;6.45;;;28.80;70.00;;;;;;4977099;28;20483;-70
2021/06/25 04:57:36;;;;;;;13.07;6.25;;;28.90;69.60;;;;;;4997216;28;20028;-66
2021/06/25 05:00:02;;;;;;;19.17;6.43;;;29.00;69.30;;;;;;4996307;28;20037;-71
2021/06/25 05:02:28;;;;;;;13.52;6.28;;;29.00;69.20;;;;;;4996754;28;20023;-71
2021/06/25 05:04:54;;;;;;;18.35;7.35;;;29.20;68.90;;;;;;4978496;28;20121;-69
2021/06/25 05:07:19;;;;;;;18.88;6.53;;;29.30;68.20;;;;;;4996689;28;20027;-71
2021/06/25 05:09:45;;;;;;;17.27;6.53;;;29.50;68.10;;;;;;4979721;28;20054;-72
2021/06/25 05:12:11;;;;;;;17.77;6.40;;;29.80;68.00;;;;;;4996409;28;20030;-71
2021/06/25 05:14:36;;;;;;;11.68;5.82;;;30.40;68.00;;;;;;4996933;28;20036;-68
2021/06/25 05:17:02;;;;;;;11.45;5.72;;;31.10;67.30;;;;;;4978566;28;20027;-71
2021/06/25 05:19:28;;;;;;;10.38;5.00;;;31.80;65.60;;;;;;4978607;28;20464;-70
2021/06/25 05:21:54;;;;;;;11.38;5.05;;;32.40;63.80;;;;;;4996297;28;20086;-70
2021/06/25 05:24:19;;;;;;;9.55;4.68;;;33.00;62.10;;;;;;4978969;28;20084;-72
2021/06/25 05:26:45;;;;;;;10.48;4.80;;;33.40;60.10;;;;;;4996547;28;20085;-67
2021/06/25 05:29:11;;;;;;;14.00;5.00;;;33.80;58.80;;;;;;4979594;28;20030;-68
2021/06/25 05:31:36;;;;;;;9.63;4.75;;;34.10;58.10;;;;;;4978862;28;20085;-70
2021/06/25 05:34:02;;;;;;;13.55;5.20;;;34.30;57.20;;;;;;4994126;28;20449;-69
2021/06/25 05:36:28;;;;;;;11.88;5.20;;;34.60;56.50;;;;;;4995462;28;20028;-68
2021/06/25 05:38:53;;;;;;;12.20;5.10;;;34.80;55.80;;;;;;4994861;28;20034;-70
2021/06/25 05:41:19;;;;;;;15.55;5.20;;;35.20;55.80;;;;;;4977534;28;20026;-71
2021/06/25 05:43:45;;;;;;;16.02;5.82;;;35.60;54.80;;;;;;4995123;28;20034;-69
2021/06/25 05:46:12;;;;;;;13.20;5.00;;;35.90;53.90;;;;;;4991954;28;20040;-71
2021/06/25 05:48:39;;;;;;;15.52;5.25;;;36.20;53.40;;;;;;4977452;28;20061;-71
2021/06/25 05:51:05;;;;;;;14.23;5.22;;;36.30;52.70;;;;;;4984406;28;20030;-70
2021/06/25 05:53:31;;;;;;;11.43;4.68;;;36.70;52.00;;;;;;4975026;28;20027;-72
2021/06/25 05:55:57;;;;;;;9.55;5.10;;;36.90;51.10;;;;;;4994069;28;20077;-69
2021/06/25 05:58:23;;;;;;;11.52;5.53;;;37.10;50.90;;;;;;4976949;28;20045;-69
2021/06/25 06:00:49;;;;;;;7.55;4.65;;;37.30;50.10;;;;;;4992507;28;20049;-69
2021/06/25 06:03:14;;;;;;;12.85;5.07;;;37.60;49.70;;;;;;4975927;28;20034;-68
2021/06/25 06:05:41;;;;;;;9.65;4.60;;;37.90;49.20;;;;;;4974990;28;20030;-71
2021/06/25 06:08:07;;;;;;;11.00;4.63;;;38.20;49.10;;;;;;4974618;28;20031;-68
2021/06/25 06:10:34;;;;;;;10.00;4.50;;;38.40;48.00;;;;;;4990110;28;20042;-69
2021/06/25 06:13:00;;;;;;;9.27;4.32;;;38.50;47.50;;;;;;4991807;28;20388;-69
2021/06/25 06:15:26;;;;;;;12.88;4.85;;;38.60;47.70;;;;;;4992681;28;20083;-68
2021/06/25 06:17:51;;;;;;;8.52;4.97;;;38.90;47.40;;;;;;4993635;28;20145;-67
2021/06/25 06:20:23;;;;;;;13.20;5.35;;;38.90;46.80;;;;;;4975213;28;20058;-71
2021/06/25 06:31:20;;;;;;;9.10;4.30;;;39.50;44.70;;;;;;4986012;28;20028;-68
2021/06/25 06:33:55;;;;;;;10.63;4.75;;;39.40;43.90;;;;;;4992551;28;20029;-65
2021/06/25 06:38:51;;;;;;;11.55;4.90;;;39.50;45.30;;;;;;4989837;28;20026;-66
2021/06/25 06:41:17;;;;;;;8.60;4.55;;;39.50;44.70;;;;;;4974933;28;20037;-67
2021/06/25 06:43:43;;;;;;;11.40;4.88;;;39.50;45.20;;;;;;4974929;28;20022;-66
2021/06/25 06:46:10;;;;;;;10.23;5.30;;;39.40;45.30;;;;;;4985411;28;20026;-66
2021/06/25 06:48:41;;;;;;;9.68;5.68;;;39.50;45.30;;;;;;4973977;28;20030;-66
2021/06/25 06:51:07;;;;;;;13.82;5.15;;;39.40;45.20;;;;;;4970223;28;20150;-69
2021/06/25 06:53:33;;;;;;;11.88;5.25;;;39.30;46.10;;;;;;4992146;28;20097;-68
2021/06/25 06:56:00;;;;;;;13.60;5.32;;;39.30;46.40;;;;;;4977422;28;20030;-68
2021/06/25 06:58:26;;;;;;;10.65;5.07;;;39.30;46.80;;;;;;4977450;28;20031;-67
2021/06/25 07:00:55;;;;;;;10.27;4.90;;;39.10;47.00;;;;;;4977175;28;20077;-68
2021/06/25 07:03:21;;;;;;;12.25;5.68;;;39.00;46.60;;;;;;4977592;28;20089;-68
2021/06/25 07:05:47;;;;;;;10.10;5.38;;;39.10;46.50;;;;;;4977685;28;20034;-68
2021/06/25 07:08:12;;;;;;;7.95;4.60;;;39.30;46.30;;;;;;4977370;28;20030;-66
2021/06/25 07:10:38;;;;;;;11.20;4.70;;;39.60;46.70;;;;;;4977244;28;20038;-69
2021/06/25 07:13:04;;;;;;;9.43;5.30;;;39.80;46.00;;;;;;4977322;28;20050;-69
2021/06/25 07:15:30;;;;;;;12.10;5.32;;;40.10;45.80;;;;;;4994602;28;20106;-68
2021/06/25 07:17:56;;;;;;;13.13;5.18;;;40.30;45.00;;;;;;4977177;28;20026;-68
2021/06/25 07:20:22;;;;;;;8.25;4.75;;;40.40;45.00;;;;;;4976987;28;20034;-68
2021/06/25 07:22:47;;;;;;;12.73;4.95;;;40.50;44.30;;;;;;4994510;28;20432;-68
2021/06/25 07:25:13;;;;;;;10.77;5.38;;;40.40;44.50;;;;;;4994677;28;20109;-67
2021/06/25 07:27:41;;;;;;;9.80;4.85;;;40.50;45.20;;;;;;4994236;28;20080;-67
2021/06/25 07:30:08;;;;;;;13.98;4.90;;;40.60;44.30;;;;;;4976899;28;20121;-69
2021/06/25 07:32:33;;;;;;;13.70;5.30;;;40.70;44.30;;;;;;4977050;28;20039;-68
2021/06/25 07:34:59;;;;;;;11.40;5.03;;;41.00;44.30;;;;;;4994051;28;20022;-67
2021/06/25 07:37:25;;;;;;;9.95;5.00;;;41.00;43.30;;;;;;4994475;28;20026;-68
2021/06/25 07:39:51;;;;;;;9.55;4.97;;;41.00;43.80;;;;;;4976774;28;20491;-69
2021/06/25 07:42:16;;;;;;;10.98;4.45;;;41.00;44.10;;;;;;4976616;28;20036;-71
2021/06/25 07:44:42;;;;;;;11.32;4.25;;;41.00;44.00;;;;;;4993891;28;20471;-68
2021/06/25 07:47:08;;;;;;;11.43;4.65;;;41.10;43.60;;;;;;4994690;28;20030;-66
2021/06/25 07:49:35;;;;;;;9.88;5.30;;;41.10;44.40;;;;;;4994317;28;20064;-69
2021/06/25 07:52:01;;;;;;;10.45;4.57;;;41.20;44.10;;;;;;4993889;28;20069;-67
2021/06/25 07:54:27;;;;;;;11.48;4.90;;;41.20;43.80;;;;;;4994192;28;20410;-71
2021/06/25 07:56:52;;;;;;;11.18;5.15;;;41.10;43.10;;;;;;4976442;28;20023;-74
2021/06/25 07:59:18;;;;;;;11.60;5.05;;;40.90;43.60;;;;;;4975765;28;20129;-69
2021/06/25 08:01:43;;;;;;;11.23;5.40;;;40.60;43.70;;;;;;4993882;28;20030;-68
2021/06/25 08:04:09;;;;;;;12.07;5.05;;;40.50;44.10;;;;;;4976224;28;20022;-69
2021/06/25 08:06:35;;;;;;;14.00;5.40;;;40.40;44.30;;;;;;4994128;28;20022;-68
2021/06/25 08:09:03;;;;;;;8.25;4.80;;;40.40;45.00;;;;;;4993706;28;20026;-67
2021/06/25 08:11:30;;;;;;;9.27;5.32;;;40.40;44.20;;;;;;4993787;28;20026;-69
2021/06/25 08:13:56;;;;;;;10.65;5.80;;;40.40;44.20;;;;;;4993347;28;20058;-71
2021/06/25 08:16:22;;;;;;;10.93;5.22;;;40.60;44.00;;;;;;4976300;28;20080;-69
2021/06/25 08:18:51;;;;;;;8.25;5.22;;;40.40;43.50;;;;;;4976482;28;20022;-68
2021/06/25 08:21:16;;;;;;;9.25;5.20;;;40.30;43.30;;;;;;4976248;28;20110;-73
2021/06/25 08:23:42;;;;;;;14.23;5.18;;;40.30;44.00;;;;;;4976418;28;20053;-74
2021/06/25 08:26:08;;;;;;;9.32;4.75;;;40.40;44.40;;;;;;4976498;28;20208;-68
2021/06/25 08:28:33;;;;;;;11.65;4.85;;;40.60;44.00;;;;;;4993762;28;20049;-68
2021/06/25 08:30:59;;;;;;;10.52;4.95;;;40.70;43.70;;;;;;4976547;28;20034;-69
2021/06/25 08:33:25;;;;;;;14.55;4.90;;;40.90;43.70;;;;;;4993764;28;20022;-68
2021/06/25 08:35:50;;;;;;;7.43;4.45;;;41.00;43.50;;;;;;4976493;28;20030;-68
2021/06/25 08:38:16;;;;;;;11.20;4.50;;;41.10;44.40;;;;;;4975960;28;20054;-68
2021/06/25 08:40:42;;;;;;;7.70;4.85;;;41.30;44.00;;;;;;4976238;28;20034;-68
2021/06/25 08:43:08;;;;;;;8.65;4.00;;;41.60;43.40;;;;;;4975792;28;20529;-68
2021/06/25 08:45:33;;;;;;;13.90;4.80;;;41.70;42.50;;;;;;4976513;28;20073;-67
2021/06/25 08:48:01;;;;;;;8.50;4.93;;;41.80;42.50;;;;;;4993738;28;20049;-67
2021/06/25 08:50:28;;;;;;;13.63;5.18;;;41.90;42.90;;;;;;4976137;28;20125;-68
2021/06/25 08:52:54;;;;;;;7.40;4.82;;;41.90;43.00;;;;;;4993730;28;20057;-68
2021/06/25 08:55:21;;;;;;;9.57;4.80;;;42.10;42.30;;;;;;4993166;28;20109;-69
2021/06/25 08:57:47;;;;;;;7.53;4.28;;;42.10;42.10;;;;;;4975802;28;20084;-69
2021/06/25 09:00:15;;;;;;;10.93;5.10;;;42.20;42.00;;;;;;4975730;28;20034;-68
2021/06/25 09:02:42;;;;;;;7.82;4.00;;;42.40;41.70;;;;;;4975747;28;20164;-68
2021/06/25 09:05:23;;;;;;;9.13;4.35;;;42.60;42.40;;;;;;4975846;28;20026;-67
2021/06/25 09:07:50;;;;;;;8.45;4.40;;;42.60;42.20;;;;;;4975717;28;20031;-65
2021/06/25 09:10:27;;;;;;;9.20;4.40;;;42.70;41.30;;;;;;4975571;28;20027;-65
2021/06/25 09:13:01;;;;;;;12.05;4.28;;;42.70;40.80;;;;;;4996798;28;20558;-66
2021/06/25 09:15:30;;;;;;;7.57;4.50;;;42.60;41.50;;;;;;4997185;28;20033;-69
2021/06/25 09:18:03;;;;;;;9.23;4.22;;;42.70;41.20;;;;;;4996748;28;20543;-68
2021/06/25 09:20:44;;;;;;;8.77;5.28;;;42.70;41.50;;;;;;4996792;28;20034;-67
2021/06/25 09:23:11;;;;;;;9.25;4.53;;;42.80;41.60;;;;;;4979823;28;20030;-66
2021/06/25 09:25:55;;;;;;;10.00;4.22;;;42.80;41.60;;;;;;4996963;28;20049;-67
2021/06/25 09:28:39;;;;;;;6.47;4.10;;;42.80;41.90;;;;;;4966569;28;20027;-67
2021/06/25 09:31:12;;;;;;;;;;;42.80;41.60;;;;;;4979431;28;20037;-66
2021/06/25 09:33:53;;;;;;;12.27;4.50;;;42.70;41.90;;;;;;4996705;28;19906;-69
2021/06/25 09:36:33;;;;;;;11.43;5.50;;;42.70;42.30;;;;;;4978773;28;20038;-68
2021/06/25 09:39:08;;;;;;;10.30;4.70;;;42.70;41.80;;;;;;4996786;28;20049;-73
2021/06/25 09:41:36;;;;;;;11.38;4.32;;;42.70;41.70;;;;;;4996188;28;20428;-69
2021/06/25 09:44:09;;;;;;;7.95;4.53;;;42.80;41.60;;;;;;4978932;28;20118;-70
2021/06/25 09:46:38;;;;;;;9.07;4.78;;;42.80;43.30;;;;;;4979100;28;20034;-68
2021/06/25 09:49:15;;;;;;;8.75;3.95;;;42.90;42.60;;;;;;4979400;28;20053;-68
2021/06/25 09:51:54;;;;;;;8.63;4.47;;;42.90;42.70;;;;;;4978802;28;20034;-69
2021/06/25 09:54:20;;;;;;;10.00;4.70;;;42.90;42.60;;;;;;4996277;28;20145;-68
2021/06/25 10:00:09;;;;;;;10.35;4.10;;;42.80;41.10;;;;;;4996138;28;20023;-68
2021/06/25 10:02:29;;;;;;;8.30;4.30;;;42.80;41.10;;;;;;4987657;28;20050;-67
2021/06/25 10:05:14;;;;;;;9.63;4.68;;;42.80;40.80;;;;;;4979101;28;20085;-69
2021/06/25 10:07:40;;;;;;;10.77;5.00;;;42.70;41.30;;;;;;4978570;28;20023;-70
2021/06/25 10:10:12;;;;;;;9.07;4.10;;;42.70;41.00;;;;;;4995918;28;20105;-74
2021/06/25 10:12:40;;;;;;;9.95;4.32;;;42.60;40.80;;;;;;4995631;28;20074;-69
2021/06/25 10:15:07;;;;;;;13.60;4.40;;;42.50;40.70;;;;;;4996195;28;20384;-69
2021/06/25 10:17:35;;;;;;;11.25;5.47;;;42.40;41.60;;;;;;4978370;28;20026;-71
2021/06/25 10:20:12;;;;;;;5.45;3.80;;;42.40;41.50;;;;;;4978401;28;20030;-69
2021/06/25 10:22:47;;;;;;;7.55;4.10;;;42.40;40.60;;;;;;4995281;28;20037;-70
2021/06/25 10:25:15;;;;;;;10.35;4.00;;;42.40;40.60;;;;;;4995741;28;20520;-69
2021/06/25 10:27:41;;;;;;;7.35;3.70;;;42.30;41.20;;;;;;4995375;28;20031;-68
2021/06/25 10:30:07;;;;;;;13.48;4.53;;;42.20;41.50;;;;;;4995377;28;20031;-69
2021/06/25 10:32:37;;;;;;;8.25;4.13;;;42.20;41.50;;;;;;4995443;28;20109;-69
2021/06/25 10:35:17;;;;;;;7.88;4.30;;;42.20;41.00;;;;;;4977783;28;20062;-69
2021/06/25 10:37:46;;;;;;;10.90;7.18;;;42.20;41.70;;;;;;4977978;28;20018;-68
2021/06/25 10:40:19;;;;;;;9.23;4.63;;;42.00;41.30;;;;;;4981998;28;20026;-70
2021/06/25 10:42:45;;;;;;;14.68;8.73;;;42.00;41.30;;;;;;4995623;28;20026;-69
2021/06/25 10:45:11;;;;;;;8.43;4.82;;;41.90;41.40;;;;;;4977553;28;20384;-69
2021/06/25 10:47:52;;;;;;;9.30;3.88;;;41.90;42.10;;;;;;4995566;28;20030;-68
2021/06/25 10:50:23;;;;;;;8.25;4.20;;;41.90;41.60;;;;;;4994767;28;20033;-68
2021/06/25 10:53:09;;;;;;;7.60;4.25;;;41.90;41.50;;;;;;4995054;28;20022;-68
2021/06/25 10:55:44;;;;;;;10.13;4.10;;;42.00;41.40;;;;;;4982268;28;20054;-68
2021/06/25 10:58:21;;;;;;;8.45;4.20;;;42.10;41.80;;;;;;4977711;28;20168;-67
2021/06/25 11:00:51;;;;;;;8.25;4.40;;;42.20;41.60;;;;;;4977419;28;20034;-69
2021/06/25 11:03:43;;;;;;;9.90;4.50;;;42.20;41.60;;;;;;4995381;28;20531;-67
2021/06/25 11:06:35;;;;;;;6.30;4.00;;;41.80;41.20;;;;;;4969620;28;20038;-67
2021/06/25 11:09:06;;;;;;;8.10;4.35;;;41.40;41.60;;;;;;4994655;28;20034;-66
2021/06/25 11:11:32;;;;;;;8.25;4.47;;;40.90;41.80;;;;;;4977733;28;20026;-66
2021/06/25 11:13:58;;;;;;;7.28;4.32;;;40.40;42.20;;;;;;4976835;28;20046;-68
2021/06/25 11:16:24;;;;;;;7.80;4.03;;;40.00;42.40;;;;;;4977228;28;20386;-67
2021/06/25 11:18:50;;;;;;;8.77;4.13;;;39.60;42.50;;;;;;4994673;28;20105;-66
2021/06/25 11:21:15;;;;;;;13.00;8.02;;;39.20;43.00;;;;;;4994425;28;20122;-67
2021/06/25 11:23:44;;;;;;;10.88;4.40;;;38.90;43.60;;;;;;4994450;28;20035;-66
2021/06/25 11:26:18;;;;;;;8.95;5.13;;;38.70;44.70;;;;;;4976881;28;20037;-66
2021/06/25 11:28:50;;;;;;;5.70;4.05;;;38.60;45.00;;;;;;4977412;28;20030;-65
2021/06/25 11:31:19;;;;;;;9.68;5.03;;;38.50;44.60;;;;;;4994390;28;20040;-66
2021/06/25 11:33:51;;;;;;;9.00;4.47;;;38.40;44.90;;;;;;4976240;28;20034;-67
2021/06/25 11:36:51;;;;;;;8.93;4.32;;;38.30;45.00;;;;;;4976518;28;20022;-66
2021/06/25 11:39:17;;;;;;;7.68;4.20;;;38.20;45.20;;;;;;4976951;28;20031;-64
2021/06/25 11:41:59;;;;;;;8.73;4.57;;;38.00;45.70;;;;;;4976744;28;20038;-71
2021/06/25 11:44:39;;;;;;;12.95;4.50;;;37.90;46.10;;;;;;4994082;28;20030;-66
2021/06/25 11:47:26;;;;;;;9.63;4.60;;;37.80;46.40;;;;;;4961531;28;20058;-67
2021/06/25 11:52:35;;;;;;;6.93;4.38;;;37.60;47.20;;;;;;4994286;28;20034;-64
2021/06/25 11:55:08;;;;;;;11.77;4.20;;;37.70;48.00;;;;;;4993832;28;20555;-67
2021/06/25 11:57:39;;;;;;;9.05;4.50;;;37.70;47.40;;;;;;4976628;28;20018;-68
2021/06/25 12:00:14;;;;;;;9.57;4.53;;;37.80;47.70;;;;;;4976553;28;20030;-67
2021/06/25 12:02:54;;;;;;;8.80;4.30;;;37.90;47.50;;;;;;4976356;28;20052;-68
2021/06/25 12:05:24;;;;;;;11.80;5.43;;;38.00;47.00;;;;;;4976375;28;20477;-67
2021/06/25 12:08:19;;;;;;;9.35;4.50;;;38.00;47.40;;;;;;4993768;28;20085;-67
2021/06/25 12:10:54;;;;;;;7.80;4.30;;;38.00;47.50;;;;;;4953446;28;20035;-67
2021/06/25 12:13:20;;;;;;;9.98;5.70;;;37.90;47.20;;;;;;4993809;28;20477;-73
2021/06/25 12:15:48;;;;;;;9.48;4.07;;;37.90;47.40;;;;;;4993442;28;20030;-73
2021/06/25 12:18:22;;;;;;;10.43;4.35;;;37.90;48.10;;;;;;4976248;28;20033;-69
2021/06/25 12:20:48;;;;;;;8.70;4.43;;;37.70;48.10;;;;;;4976279;28;20456;-68
2021/06/25 12:23:13;;;;;;;10.48;4.38;;;37.60;48.20;;;;;;4993818;28;20050;-66
2021/06/25 12:25:46;;;;;;;9.93;4.82;;;37.50;47.80;;;;;;4993782;28;20026;-66
2021/06/25 12:28:13;;;;;;;12.65;5.70;;;37.40;48.10;;;;;;4993279;28;20456;-64
2021/06/25 12:30:49;;;;;;;9.20;5.15;;;37.30;48.30;;;;;;4976561;28;20042;-68
2021/06/25 12:33:16;;;;;;;7.22;4.50;;;37.30;49.00;;;;;;4993509;28;20018;-66
2021/06/25 12:35:50;;;;;;;11.50;4.20;;;37.20;49.50;;;;;;4993635;28;20026;-68
2021/06/25 12:38:20;;;;;;;;;;;37.20;48.60;;;;;;4976226;28;20019;-66
2021/06/25 12:40:55;;;;;;;9.00;4.63;;;37.10;48.30;;;;;;4976005;28;20257;-68
2021/06/25 12:43:26;;;;;;;13.32;4.85;;;37.00;48.30;;;;;;4976102;28;20383;-67
2021/06/25 12:45:58;;;;;;;10.32;6.43;;;37.00;48.80;;;;;;4996102;28;20022;-68
2021/06/25 12:48:30;;;;;;;12.18;5.95;;;36.80;49.00;;;;;;4997426;28;20014;-67
2021/06/25 12:51:09;;;;;;;12.23;7.53;;;36.80;49.00;;;;;;4980092;28;20069;-68
2021/06/25 12:53:37;;;;;;;14.18;8.40;;;36.80;49.60;;;;;;4979966;28;20561;-68
2021/06/25 12:56:19;;;;;;;12.57;5.72;;;36.60;49.40;;;;;;4997054;28;20038;-70
2021/06/25 12:58:48;;;;;;;12.50;6.13;;;36.50;49.40;;;;;;4997248;28;20085;-67
2021/06/25 13:01:14;;;;;;;11.30;5.00;;;36.50;49.70;;;;;;4997171;28;20023;-67
2021/06/25 13:03:45;;;;;;;9.90;5.00;;;36.40;50.10;;;;;;4996985;28;20488;-67